Enter the Airport ICAO Code

Search by Airport or City

Current Weather

LFMN | Nice Côte d'Azur Airport

Nice, Provence-Alpes-Côte d'Azur, France

Last Update 26 Minutes Ago

Sky with Few Clouds

Temperature of 24 ºC

Light to Moderate Winds from East

Temperature

24 ºC

Dew Point Temperature

15 ºC

Relative Humidity

57.34 %

Wind Direction

East (090º, Without Significant Variations)

Wind Velocity

15 km/h (08 kt)

Gusts

None

Visibility

Greater than 10 Kilometers

Sea Level Pressure

1021 hPa (Hectopascals)

Layers of Clouds

5% to 30% of Sky Covered from 1006 mts (3300 ft) Above Ground Level.

METAR LFMN 211400Z 09008KT 9999 FEW033 24/15 Q1021 NOSIG

Weather Forecast

LFMN | Nice Côte d'Azur Airport

Nice, Provence-Alpes-Côte d'Azur, France

Forecast valid for the next 31 Hours

In 1 hour it is expected the begining of:

Sky with Few Clouds

Moderate Winds from East

In 6 to 8 hours it is expected the begining of:

Moderate Winds from North

In 20 to 22 hours it is expected the begining of:

Light to Moderate Winds from SouthEast

Maximum Temperature

No Data

Minimum Temperature

No Data

TAF LFMN 211400Z 2115/2221 09015KT 9999 FEW030 BECMG 2120/2122 34010KT BECMG 2210/2212 14008KT